sensor_id;sensor_type;location;lat;lon;timestamp;temperature;humidity
39777;DHT22;25453;48.162;14.510;2022-10-16T00:01:35;14.40;87.90
39777;DHT22;25453;48.162;14.510;2022-10-16T00:04:09;14.40;87.80
39777;DHT22;25453;48.162;14.510;2022-10-16T00:06:47;14.40;87.70
39777;DHT22;25453;48.162;14.510;2022-10-16T00:09:14;14.30;87.60
39777;DHT22;25453;48.162;14.510;2022-10-16T00:11:49;14.30;87.70
39777;DHT22;25453;48.162;14.510;2022-10-16T00:14:17;14.30;87.60
39777;DHT22;25453;48.162;14.510;2022-10-16T00:16:51;14.30;87.60
39777;DHT22;25453;48.162;14.510;2022-10-16T00:19:25;14.30;87.90
39777;DHT22;25453;48.162;14.510;2022-10-16T00:21:59;14.30;87.80
39777;DHT22;25453;48.162;14.510;2022-10-16T00:24:33;14.30;87.90
39777;DHT22;25453;48.162;14.510;2022-10-16T00:27:08;14.30;87.80
39777;DHT22;25453;48.162;14.510;2022-10-16T00:29:43;14.30;87.90
39777;DHT22;25453;48.162;14.510;2022-10-16T00:32:17;14.40;88.00
39777;DHT22;25453;48.162;14.510;2022-10-16T00:34:54;14.40;88.00
39777;DHT22;25453;48.162;14.510;2022-10-16T00:37:31;14.40;88.00
39777;DHT22;25453;48.162;14.510;2022-10-16T00:39:59;14.40;87.90
39777;DHT22;25453;48.162;14.510;2022-10-16T00:42:34;14.40;87.70
39777;DHT22;25453;48.162;14.510;2022-10-16T00:45:01;14.40;87.70
39777;DHT22;25453;48.162;14.510;2022-10-16T00:47:42;14.40;87.50
39777;DHT22;25453;48.162;14.510;2022-10-16T00:50:31;14.40;87.40
39777;DHT22;25453;48.162;14.510;2022-10-16T00:53:00;14.40;87.60
39777;DHT22;25453;48.162;14.510;2022-10-16T00:55:36;14.40;87.60
39777;DHT22;25453;48.162;14.510;2022-10-16T00:58:08;14.40;87.60
39777;DHT22;25453;48.162;14.510;2022-10-16T01:00:43;14.40;87.60
39777;DHT22;25453;48.162;14.510;2022-10-16T01:03:42;14.40;87.60
39777;DHT22;25453;48.162;14.510;2022-10-16T01:06:23;14.40;87.60
39777;DHT22;25453;48.162;14.510;2022-10-16T01:09:00;14.40;87.60
39777;DHT22;25453;48.162;14.510;2022-10-16T01:12:26;14.40;87.60
39777;DHT22;25453;48.162;14.510;2022-10-16T01:14:46;14.40;87.50
39777;DHT22;25453;48.162;14.510;2022-10-16T01:20:31;14.40;87.50
39777;DHT22;25453;48.162;14.510;2022-10-16T01:26:43;14.30;87.50
39777;DHT22;25453;48.162;14.510;2022-10-16T01:29:26;14.20;87.50
39777;DHT22;25453;48.162;14.510;2022-10-16T01:32:09;14.20;87.60
39777;DHT22;25453;48.162;14.510;2022-10-16T01:38:39;14.20;87.70
39777;DHT22;25453;48.162;14.510;2022-10-16T01:40:46;14.10;87.60
39777;DHT22;25453;48.162;14.510;2022-10-16T01:43:36;14.10;87.70
39777;DHT22;25453;48.162;14.510;2022-10-16T01:46:05;14.10;87.80
39777;DHT22;25453;48.162;14.510;2022-10-16T01:48:42;14.10;87.80
39777;DHT22;25453;48.162;14.510;2022-10-16T01:51:12;14.10;87.70
39777;DHT22;25453;48.162;14.510;2022-10-16T01:53:51;14.10;87.80
39777;DHT22;25453;48.162;14.510;2022-10-16T01:56:26;14.20;88.00
39777;DHT22;25453;48.162;14.510;2022-10-16T01:59:15;14.20;87.90
39777;DHT22;25453;48.162;14.510;2022-10-16T02:01:54;14.20;87.90
39777;DHT22;25453;48.162;14.510;2022-10-16T02:04:38;14.30;87.80
39777;DHT22;25453;48.162;14.510;2022-10-16T02:07:13;14.30;87.60
39777;DHT22;25453;48.162;14.510;2022-10-16T02:09:41;14.20;87.40
39777;DHT22;25453;48.162;14.510;2022-10-16T02:12:27;14.20;87.20
39777;DHT22;25453;48.162;14.510;2022-10-16T02:15:02;14.10;87.40
39777;DHT22;25453;48.162;14.510;2022-10-16T02:17:37;14.10;87.30
39777;DHT22;25453;48.162;14.510;2022-10-16T02:20:05;14.10;87.30
39777;DHT22;25453;48.162;14.510;2022-10-16T02:22:45;14.10;87.30
39777;DHT22;25453;48.162;14.510;2022-10-16T02:25:31;14.10;87.50
39777;DHT22;25453;48.162;14.510;2022-10-16T02:28:21;14.20;87.60
39777;DHT22;25453;48.162;14.510;2022-10-16T02:31:05;14.20;87.20
39777;DHT22;25453;48.162;14.510;2022-10-16T02:33:43;14.10;86.90
39777;DHT22;25453;48.162;14.510;2022-10-16T02:36:11;14.00;86.90
39777;DHT22;25453;48.162;14.510;2022-10-16T02:38:40;14.00;86.90
39777;DHT22;25453;48.162;14.510;2022-10-16T02:41:14;14.00;87.00
39777;DHT22;25453;48.162;14.510;2022-10-16T02:43:48;13.90;87.10
39777;DHT22;25453;48.162;14.510;2022-10-16T02:46:17;14.00;87.20
39777;DHT22;25453;48.162;14.510;2022-10-16T02:48:51;14.00;87.20
39777;DHT22;25453;48.162;14.510;2022-10-16T02:51:18;14.00;87.10
39777;DHT22;25453;48.162;14.510;2022-10-16T02:53:52;14.00;87.20
39777;DHT22;25453;48.162;14.510;2022-10-16T02:56:19;14.00;87.40
39777;DHT22;25453;48.162;14.510;2022-10-16T02:58:46;14.10;87.40
39777;DHT22;25453;48.162;14.510;2022-10-16T03:01:21;14.10;87.40
39777;DHT22;25453;48.162;14.510;2022-10-16T03:03:55;14.10;87.10
39777;DHT22;25453;48.162;14.510;2022-10-16T03:06:29;14.10;86.90
39777;DHT22;25453;48.162;14.510;2022-10-16T03:09:03;14.00;86.70
39777;DHT22;25453;48.162;14.510;2022-10-16T03:11:31;14.00;86.70
39777;DHT22;25453;48.162;14.510;2022-10-16T03:14:05;13.90;86.70
39777;DHT22;25453;48.162;14.510;2022-10-16T03:16:32;13.90;86.80
39777;DHT22;25453;48.162;14.510;2022-10-16T03:19:06;13.90;86.90
39777;DHT22;25453;48.162;14.510;2022-10-16T03:21:33;13.90;87.10
39777;DHT22;25453;48.162;14.510;2022-10-16T03:24:07;14.00;87.20
39777;DHT22;25453;48.162;14.510;2022-10-16T03:26:34;14.00;87.20
39777;DHT22;25453;48.162;14.510;2022-10-16T03:29:14;14.00;87.20
39777;DHT22;25453;48.162;14.510;2022-10-16T03:31:48;14.00;87.20
39777;DHT22;25453;48.162;14.510;2022-10-16T03:34:29;14.00;86.90
39777;DHT22;25453;48.162;14.510;2022-10-16T03:37:03;14.00;86.70
39777;DHT22;25453;48.162;14.510;2022-10-16T03:39:37;14.00;86.70
39777;DHT22;25453;48.162;14.510;2022-10-16T03:42:11;13.90;86.70
39777;DHT22;25453;48.162;14.510;2022-10-16T03:44:46;13.90;86.70
39777;DHT22;25453;48.162;14.510;2022-10-16T03:47:20;13.90;86.70
39777;DHT22;25453;48.162;14.510;2022-10-16T03:49:49;13.90;86.90
39777;DHT22;25453;48.162;14.510;2022-10-16T03:52:17;13.90;87.00
39777;DHT22;25453;48.162;14.510;2022-10-16T03:54:51;13.90;86.90
39777;DHT22;25453;48.162;14.510;2022-10-16T03:57:25;13.90;86.70
39777;DHT22;25453;48.162;14.510;2022-10-16T03:59:53;13.90;86.70
39777;DHT22;25453;48.162;14.510;2022-10-16T04:02:21;13.90;86.60
39777;DHT22;25453;48.162;14.510;2022-10-16T04:04:55;13.80;86.80
39777;DHT22;25453;48.162;14.510;2022-10-16T04:07:29;13.90;86.80
39777;DHT22;25453;48.162;14.510;2022-10-16T04:09:56;13.90;86.80
39777;DHT22;25453;48.162;14.510;2022-10-16T04:12:32;13.90;86.60
39777;DHT22;25453;48.162;14.510;2022-10-16T04:15:00;13.90;86.60
39777;DHT22;25453;48.162;14.510;2022-10-16T04:17:34;13.80;86.60
39777;DHT22;25453;48.162;14.510;2022-10-16T04:20:01;13.80;86.60
39777;DHT22;25453;48.162;14.510;2022-10-16T04:22:35;13.70;86.40
39777;DHT22;25453;48.162;14.510;2022-10-16T04:25:03;13.60;86.50
39777;DHT22;25453;48.162;14.510;2022-10-16T04:27:39;13.60;86.70
39777;DHT22;25453;48.162;14.510;2022-10-16T04:30:18;13.60;86.80
39777;DHT22;25453;48.162;14.510;2022-10-16T04:32:53;13.60;86.70
39777;DHT22;25453;48.162;14.510;2022-10-16T04:35:21;13.60;86.70
39777;DHT22;25453;48.162;14.510;2022-10-16T04:37:58;13.60;86.90
39777;DHT22;25453;48.162;14.510;2022-10-16T04:40:25;13.60;87.10
39777;DHT22;25453;48.162;14.510;2022-10-16T04:42:59;13.70;86.80
39777;DHT22;25453;48.162;14.510;2022-10-16T04:45:33;13.60;86.60
39777;DHT22;25453;48.162;14.510;2022-10-16T04:48:07;13.70;86.50
39777;DHT22;25453;48.162;14.510;2022-10-16T04:50:34;13.60;86.40
39777;DHT22;25453;48.162;14.510;2022-10-16T04:53:08;13.60;86.30
39777;DHT22;25453;48.162;14.510;2022-10-16T04:55:42;13.60;86.40
39777;DHT22;25453;48.162;14.510;2022-10-16T04:58:17;13.60;86.40
39777;DHT22;25453;48.162;14.510;2022-10-16T05:00:45;13.60;86.40
39777;DHT22;25453;48.162;14.510;2022-10-16T05:03:20;13.60;86.40
39777;DHT22;25453;48.162;14.510;2022-10-16T05:05:47;13.70;86.40
39777;DHT22;25453;48.162;14.510;2022-10-16T05:08:16;13.70;86.40
39777;DHT22;25453;48.162;14.510;2022-10-16T05:10:50;13.70;86.40
39777;DHT22;25453;48.162;14.510;2022-10-16T05:13:17;13.70;86.30
39777;DHT22;25453;48.162;14.510;2022-10-16T05:15:51;13.70;86.30
39777;DHT22;25453;48.162;14.510;2022-10-16T05:18:19;13.70;86.40
39777;DHT22;25453;48.162;14.510;2022-10-16T05:20:46;13.80;86.40
39777;DHT22;25453;48.162;14.510;2022-10-16T05:23:20;13.80;86.30
39777;DHT22;25453;48.162;14.510;2022-10-16T05:25:55;13.80;86.40
39777;DHT22;25453;48.162;14.510;2022-10-16T05:28:31;13.80;86.30
39777;DHT22;25453;48.162;14.510;2022-10-16T05:31:09;13.90;86.30
39777;DHT22;25453;48.162;14.510;2022-10-16T05:33:44;13.90;86.20
39777;DHT22;25453;48.162;14.510;2022-10-16T05:36:18;13.90;85.80
39777;DHT22;25453;48.162;14.510;2022-10-16T05:38:50;13.80;85.80
39777;DHT22;25453;48.162;14.510;2022-10-16T05:41:25;13.80;85.90
39777;DHT22;25453;48.162;14.510;2022-10-16T05:43:53;13.80;85.70
39777;DHT22;25453;48.162;14.510;2022-10-16T05:46:20;13.80;85.60
39777;DHT22;25453;48.162;14.510;2022-10-16T05:48:55;13.70;85.60
39777;DHT22;25453;48.162;14.510;2022-10-16T05:51:29;13.70;85.60
39777;DHT22;25453;48.162;14.510;2022-10-16T05:53:58;13.70;85.60
39777;DHT22;25453;48.162;14.510;2022-10-16T05:56:32;13.70;85.70
39777;DHT22;25453;48.162;14.510;2022-10-16T05:58:59;13.70;85.70
39777;DHT22;25453;48.162;14.510;2022-10-16T06:01:26;13.70;85.70
39777;DHT22;25453;48.162;14.510;2022-10-16T06:04:00;13.70;85.80
39777;DHT22;25453;48.162;14.510;2022-10-16T06:06:29;13.70;85.90
39777;DHT22;25453;48.162;14.510;2022-10-16T06:09:03;13.70;85.80
39777;DHT22;25453;48.162;14.510;2022-10-16T06:11:37;13.70;85.90
39777;DHT22;25453;48.162;14.510;2022-10-16T06:14:04;13.80;85.70
39777;DHT22;25453;48.162;14.510;2022-10-16T06:16:40;13.80;85.50
39777;DHT22;25453;48.162;14.510;2022-10-16T06:19:14;13.70;85.70
39777;DHT22;25453;48.162;14.510;2022-10-16T06:21:43;13.70;85.70
39777;DHT22;25453;48.162;14.510;2022-10-16T06:24:17;13.70;85.60
39777;DHT22;25453;48.162;14.510;2022-10-16T06:26:51;13.80;85.80
39777;DHT22;25453;48.162;14.510;2022-10-16T06:29:31;13.80;85.90
39777;DHT22;25453;48.162;14.510;2022-10-16T06:32:05;13.80;86.00
39777;DHT22;25453;48.162;14.510;2022-10-16T06:34:39;13.90;86.00
39777;DHT22;25453;48.162;14.510;2022-10-16T06:37:15;13.90;85.80
39777;DHT22;25453;48.162;14.510;2022-10-16T06:39:42;13.90;85.90
39777;DHT22;25453;48.162;14.510;2022-10-16T06:42:18;13.90;86.00
39777;DHT22;25453;48.162;14.510;2022-10-16T06:44:45;13.90;86.00
39777;DHT22;25453;48.162;14.510;2022-10-16T06:47:19;14.00;85.80
39777;DHT22;25453;48.162;14.510;2022-10-16T06:49:46;14.00;85.80
39777;DHT22;25453;48.162;14.510;2022-10-16T06:52:19;14.00;85.90
39777;DHT22;25453;48.162;14.510;2022-10-16T06:54:54;14.00;86.00
39777;DHT22;25453;48.162;14.510;2022-10-16T06:57:25;14.00;86.20
39777;DHT22;25453;48.162;14.510;2022-10-16T06:59:52;14.00;86.00
39777;DHT22;25453;48.162;14.510;2022-10-16T07:02:27;14.00;85.90
39777;DHT22;25453;48.162;14.510;2022-10-16T07:05:01;14.00;86.00
39777;DHT22;25453;48.162;14.510;2022-10-16T07:07:28;14.00;86.00
39777;DHT22;25453;48.162;14.510;2022-10-16T07:10:02;14.10;86.20
39777;DHT22;25453;48.162;14.510;2022-10-16T07:12:29;14.10;85.80
39777;DHT22;25453;48.162;14.510;2022-10-16T07:15:03;14.00;85.60
39777;DHT22;25453;48.162;14.510;2022-10-16T07:17:37;14.00;85.80
39777;DHT22;25453;48.162;14.510;2022-10-16T07:20:11;14.00;86.00
39777;DHT22;25453;48.162;14.510;2022-10-16T07:22:38;14.10;85.90
39777;DHT22;25453;48.162;14.510;2022-10-16T07:25:12;14.10;86.30
39777;DHT22;25453;48.162;14.510;2022-10-16T07:27:46;14.20;86.50
39777;DHT22;25453;48.162;14.510;2022-10-16T07:30:13;14.30;86.40
39777;DHT22;25453;48.162;14.510;2022-10-16T07:32:54;14.30;86.30
39777;DHT22;25453;48.162;14.510;2022-10-16T07:35:22;14.40;86.30
39777;DHT22;25453;48.162;14.510;2022-10-16T07:37:57;14.50;86.20
39777;DHT22;25453;48.162;14.510;2022-10-16T07:40:24;14.50;86.00
39777;DHT22;25453;48.162;14.510;2022-10-16T07:43:00;14.50;85.80
39777;DHT22;25453;48.162;14.510;2022-10-16T07:45:29;14.50;85.80
39777;DHT22;25453;48.162;14.510;2022-10-16T07:48:03;14.60;86.00
39777;DHT22;25453;48.162;14.510;2022-10-16T07:50:37;14.60;86.10
39777;DHT22;25453;48.162;14.510;2022-10-16T07:53:11;14.70;86.00
39777;DHT22;25453;48.162;14.510;2022-10-16T07:55:39;14.70;86.00
39777;DHT22;25453;48.162;14.510;2022-10-16T07:58:14;14.80;85.80
39777;DHT22;25453;48.162;14.510;2022-10-16T08:00:48;14.80;85.90
39777;DHT22;25453;48.162;14.510;2022-10-16T08:03:15;14.90;85.90
39777;DHT22;25453;48.162;14.510;2022-10-16T08:05:49;14.90;85.70
39777;DHT22;25453;48.162;14.510;2022-10-16T08:08:18;14.90;85.80
39777;DHT22;25453;48.162;14.510;2022-10-16T08:10:52;15.00;86.00
39777;DHT22;25453;48.162;14.510;2022-10-16T08:13:20;15.10;85.90
39777;DHT22;25453;48.162;14.510;2022-10-16T08:15:55;15.10;85.60
39777;DHT22;25453;48.162;14.510;2022-10-16T08:18:22;15.10;85.60
39777;DHT22;25453;48.162;14.510;2022-10-16T08:21:00;15.20;85.70
39777;DHT22;25453;48.162;14.510;2022-10-16T08:23:42;15.20;86.00
39777;DHT22;25453;48.162;14.510;2022-10-16T08:26:12;15.30;86.20
39777;DHT22;25453;48.162;14.510;2022-10-16T08:28:49;15.40;86.20
39777;DHT22;25453;48.162;14.510;2022-10-16T08:31:29;15.60;85.90
39777;DHT22;25453;48.162;14.510;2022-10-16T08:34:11;15.60;85.80
39777;DHT22;25453;48.162;14.510;2022-10-16T08:36:38;15.70;85.80
39777;DHT22;25453;48.162;14.510;2022-10-16T08:39:12;15.80;85.50
39777;DHT22;25453;48.162;14.510;2022-10-16T08:41:50;15.80;85.40
39777;DHT22;25453;48.162;14.510;2022-10-16T08:44:56;15.80;85.50
39777;DHT22;25453;48.162;14.510;2022-10-16T08:50:13;16.10;86.00
39777;DHT22;25453;48.162;14.510;2022-10-16T08:52:43;16.20;85.70
39777;DHT22;25453;48.162;14.510;2022-10-16T08:58:01;16.30;85.70
39777;DHT22;25453;48.162;14.510;2022-10-16T09:00:38;16.50;86.20
39777;DHT22;25453;48.162;14.510;2022-10-16T09:25:43;19.70;85.00
39777;DHT22;25453;48.162;14.510;2022-10-16T09:28:30;20.20;84.00
39777;DHT22;25453;48.162;14.510;2022-10-16T09:31:19;20.60;81.80
39777;DHT22;25453;48.162;14.510;2022-10-16T09:34:04;21.00;80.60
39777;DHT22;25453;48.162;14.510;2022-10-16T09:36:40;21.30;79.50
39777;DHT22;25453;48.162;14.510;2022-10-16T09:39:19;21.60;78.10
39777;DHT22;25453;48.162;14.510;2022-10-16T09:41:46;21.80;77.00
39777;DHT22;25453;48.162;14.510;2022-10-16T09:44:28;22.00;76.00
39777;DHT22;25453;48.162;14.510;2022-10-16T09:47:35;22.10;75.30
39777;DHT22;25453;48.162;14.510;2022-10-16T09:50:25;22.30;74.60
39777;DHT22;25453;48.162;14.510;2022-10-16T09:53:11;22.50;73.90
39777;DHT22;25453;48.162;14.510;2022-10-16T09:55:50;22.60;72.70
39777;DHT22;25453;48.162;14.510;2022-10-16T09:58:24;22.70;71.60
39777;DHT22;25453;48.162;14.510;2022-10-16T10:00:53;22.60;70.50
39777;DHT22;25453;48.162;14.510;2022-10-16T10:03:40;22.50;70.40
39777;DHT22;25453;48.162;14.510;2022-10-16T10:06:27;22.40;70.40
39777;DHT22;25453;48.162;14.510;2022-10-16T10:09:15;22.40;70.90
39777;DHT22;25453;48.162;14.510;2022-10-16T10:11:59;22.30;70.60
39777;DHT22;25453;48.162;14.510;2022-10-16T10:14:38;22.30;70.50
39777;DHT22;25453;48.162;14.510;2022-10-16T10:17:25;22.20;70.10
39777;DHT22;25453;48.162;14.510;2022-10-16T10:20:23;22.10;71.00
39777;DHT22;25453;48.162;14.510;2022-10-16T10:22:57;22.30;71.60
39777;DHT22;25453;48.162;14.510;2022-10-16T10:25:46;22.40;71.50
39777;DHT22;25453;48.162;14.510;2022-10-16T10:43:10;23.10;68.40
39777;DHT22;25453;48.162;14.510;2022-10-16T10:45:44;23.00;67.90
39777;DHT22;25453;48.162;14.510;2022-10-16T10:51:53;22.80;68.80
39777;DHT22;25453;48.162;14.510;2022-10-16T10:54:32;22.70;68.70
39777;DHT22;25453;48.162;14.510;2022-10-16T11:00:22;22.60;69.10
39777;DHT22;25453;48.162;14.510;2022-10-16T11:03:22;22.70;69.20
39777;DHT22;25453;48.162;14.510;2022-10-16T11:11:59;23.20;68.70
39777;DHT22;25453;48.162;14.510;2022-10-16T11:14:51;23.40;68.40
39777;DHT22;25453;48.162;14.510;2022-10-16T11:17:45;23.50;68.00
39777;DHT22;25453;48.162;14.510;2022-10-16T11:20:34;23.70;67.40
39777;DHT22;25453;48.162;14.510;2022-10-16T11:23:12;23.80;66.90
39777;DHT22;25453;48.162;14.510;2022-10-16T11:25:49;23.90;66.50
39777;DHT22;25453;48.162;14.510;2022-10-16T11:31:47;24.10;65.80
39777;DHT22;25453;48.162;14.510;2022-10-16T11:34:36;24.20;65.50
39777;DHT22;25453;48.162;14.510;2022-10-16T11:37:19;24.20;65.20
39777;DHT22;25453;48.162;14.510;2022-10-16T11:39:50;24.30;65.10
39777;DHT22;25453;48.162;14.510;2022-10-16T11:42:32;24.40;64.90
39777;DHT22;25453;48.162;14.510;2022-10-16T11:45:33;24.40;64.90
39777;DHT22;25453;48.162;14.510;2022-10-16T11:48:12;24.40;64.90
39777;DHT22;25453;48.162;14.510;2022-10-16T11:50:57;24.50;64.80
39777;DHT22;25453;48.162;14.510;2022-10-16T11:56:19;24.40;64.70
39777;DHT22;25453;48.162;14.510;2022-10-16T11:59:08;24.40;64.60
39777;DHT22;25453;48.162;14.510;2022-10-16T12:01:58;24.40;64.40
39777;DHT22;25453;48.162;14.510;2022-10-16T12:04:35;24.40;64.20
39777;DHT22;25453;48.162;14.510;2022-10-16T12:07:23;24.40;63.70
39777;DHT22;25453;48.162;14.510;2022-10-16T12:09:58;24.30;63.70
39777;DHT22;25453;48.162;14.510;2022-10-16T12:12:43;24.20;63.60
39777;DHT22;25453;48.162;14.510;2022-10-16T12:15:35;24.00;63.90
39777;DHT22;25453;48.162;14.510;2022-10-16T12:18:25;23.90;64.10
39777;DHT22;25453;48.162;14.510;2022-10-16T12:20:59;23.80;64.50
39777;DHT22;25453;48.162;14.510;2022-10-16T12:23:51;23.80;64.80
39777;DHT22;25453;48.162;14.510;2022-10-16T12:26:27;23.80;65.10
39777;DHT22;25453;48.162;14.510;2022-10-16T12:29:28;23.70;64.90
39777;DHT22;25453;48.162;14.510;2022-10-16T12:32:38;23.70;64.50
39777;DHT22;25453;48.162;14.510;2022-10-16T12:35:29;23.70;64.60
39777;DHT22;25453;48.162;14.510;2022-10-16T12:41:00;23.50;64.60
39777;DHT22;25453;48.162;14.510;2022-10-16T12:43:53;23.40;64.80
39777;DHT22;25453;48.162;14.510;2022-10-16T12:51:49;23.20;65.20
39777;DHT22;25453;48.162;14.510;2022-10-16T12:54:37;23.10;65.00
39777;DHT22;25453;48.162;14.510;2022-10-16T13:00:54;22.80;64.50
39777;DHT22;25453;48.162;14.510;2022-10-16T13:03:54;22.60;64.80
39777;DHT22;25453;48.162;14.510;2022-10-16T13:09:38;22.30;65.90
39777;DHT22;25453;48.162;14.510;2022-10-16T13:15:30;22.30;68.20
39777;DHT22;25453;48.162;14.510;2022-10-16T13:24:40;22.40;69.20
39777;DHT22;25453;48.162;14.510;2022-10-16T13:30:18;22.40;70.00
39777;DHT22;25453;48.162;14.510;2022-10-16T13:33:17;22.40;70.10
39777;DHT22;25453;48.162;14.510;2022-10-16T13:35:55;22.40;70.10
39777;DHT22;25453;48.162;14.510;2022-10-16T13:38:34;22.30;70.10
39777;DHT22;25453;48.162;14.510;2022-10-16T13:41:14;22.30;70.20
39777;DHT22;25453;48.162;14.510;2022-10-16T13:43:51;22.20;70.20
39777;DHT22;25453;48.162;14.510;2022-10-16T13:46:21;22.20;70.10
39777;DHT22;25453;48.162;14.510;2022-10-16T13:49:02;22.10;70.20
39777;DHT22;25453;48.162;14.510;2022-10-16T13:51:32;22.10;70.30
39777;DHT22;25453;48.162;14.510;2022-10-16T13:54:09;22.00;70.30
39777;DHT22;25453;48.162;14.510;2022-10-16T13:56:39;22.00;70.30
39777;DHT22;25453;48.162;14.510;2022-10-16T13:59:36;21.90;70.30
39777;DHT22;25453;48.162;14.510;2022-10-16T14:04:53;21.80;70.70
39777;DHT22;25453;48.162;14.510;2022-10-16T14:07:25;21.80;70.80
39777;DHT22;25453;48.162;14.510;2022-10-16T14:10:35;21.70;70.90
39777;DHT22;25453;48.162;14.510;2022-10-16T14:13:01;21.70;71.00
39777;DHT22;25453;48.162;14.510;2022-10-16T14:15:37;21.60;71.20
39777;DHT22;25453;48.162;14.510;2022-10-16T14:18:19;21.60;71.20
39777;DHT22;25453;48.162;14.510;2022-10-16T14:21:06;21.50;71.20
39777;DHT22;25453;48.162;14.510;2022-10-16T14:23:41;21.50;71.30
39777;DHT22;25453;48.162;14.510;2022-10-16T14:28:44;21.40;71.30
39777;DHT22;25453;48.162;14.510;2022-10-16T14:34:32;21.20;71.30
39777;DHT22;25453;48.162;14.510;2022-10-16T14:37:13;21.20;71.40
39777;DHT22;25453;48.162;14.510;2022-10-16T14:39:54;21.10;71.30
39777;DHT22;25453;48.162;14.510;2022-10-16T14:42:29;21.10;71.40
39777;DHT22;25453;48.162;14.510;2022-10-16T14:45:08;21.00;71.50
39777;DHT22;25453;48.162;14.510;2022-10-16T14:47:52;21.00;71.50
39777;DHT22;25453;48.162;14.510;2022-10-16T14:50:27;20.90;71.50
39777;DHT22;25453;48.162;14.510;2022-10-16T14:52:55;20.80;71.40
39777;DHT22;25453;48.162;14.510;2022-10-16T14:55:29;20.80;71.50
39777;DHT22;25453;48.162;14.510;2022-10-16T14:57:56;20.70;71.60
39777;DHT22;25453;48.162;14.510;2022-10-16T15:00:30;20.70;71.80
39777;DHT22;25453;48.162;14.510;2022-10-16T15:03:05;20.60;72.00
39777;DHT22;25453;48.162;14.510;2022-10-16T15:05:33;20.60;72.20
39777;DHT22;25453;48.162;14.510;2022-10-16T15:08:07;20.50;72.30
39777;DHT22;25453;48.162;14.510;2022-10-16T15:10:42;20.40;72.40
39777;DHT22;25453;48.162;14.510;2022-10-16T15:13:16;20.40;72.50
39777;DHT22;25453;48.162;14.510;2022-10-16T15:15:45;20.30;72.50
39777;DHT22;25453;48.162;14.510;2022-10-16T15:18:19;20.30;72.60
39777;DHT22;25453;48.162;14.510;2022-10-16T15:20:54;20.20;73.00
39777;DHT22;25453;48.162;14.510;2022-10-16T15:23:22;20.20;73.10
39777;DHT22;25453;48.162;14.510;2022-10-16T15:25:56;20.20;73.20
39777;DHT22;25453;48.162;14.510;2022-10-16T15:28:30;20.10;73.30
39777;DHT22;25453;48.162;14.510;2022-10-16T15:30:57;20.10;73.40
39777;DHT22;25453;48.162;14.510;2022-10-16T15:33:37;20.10;73.40
39777;DHT22;25453;48.162;14.510;2022-10-16T15:36:06;20.00;73.50
39777;DHT22;25453;48.162;14.510;2022-10-16T15:38:43;19.90;73.50
39777;DHT22;25453;48.162;14.510;2022-10-16T15:41:20;19.90;73.70
39777;DHT22;25453;48.162;14.510;2022-10-16T15:43:51;19.80;73.90
39777;DHT22;25453;48.162;14.510;2022-10-16T15:46:25;19.80;74.10
39777;DHT22;25453;48.162;14.510;2022-10-16T15:48:57;19.70;74.30
39777;DHT22;25453;48.162;14.510;2022-10-16T15:51:31;19.70;74.40
39777;DHT22;25453;48.162;14.510;2022-10-16T15:54:08;19.60;74.50
39777;DHT22;25453;48.162;14.510;2022-10-16T15:56:42;19.50;74.70
39777;DHT22;25453;48.162;14.510;2022-10-16T15:59:17;19.50;74.90
39777;DHT22;25453;48.162;14.510;2022-10-16T16:01:44;19.40;75.10
39777;DHT22;25453;48.162;14.510;2022-10-16T16:04:18;19.30;75.30
39777;DHT22;25453;48.162;14.510;2022-10-16T16:07:12;19.30;75.90
39777;DHT22;25453;48.162;14.510;2022-10-16T16:09:46;19.30;76.30
39777;DHT22;25453;48.162;14.510;2022-10-16T16:12:20;19.30;76.40
39777;DHT22;25453;48.162;14.510;2022-10-16T16:14:47;19.20;76.60
39777;DHT22;25453;48.162;14.510;2022-10-16T16:17:22;19.30;76.70
39777;DHT22;25453;48.162;14.510;2022-10-16T16:19:57;19.20;76.80
39777;DHT22;25453;48.162;14.510;2022-10-16T16:22:24;19.20;76.80
39777;DHT22;25453;48.162;14.510;2022-10-16T16:24:58;19.20;76.80
39777;DHT22;25453;48.162;14.510;2022-10-16T16:27:32;19.20;76.80
39777;DHT22;25453;48.162;14.510;2022-10-16T16:30:02;19.10;77.00
39777;DHT22;25453;48.162;14.510;2022-10-16T16:32:44;19.10;77.00
39777;DHT22;25453;48.162;14.510;2022-10-16T16:35:18;19.10;77.20
39777;DHT22;25453;48.162;14.510;2022-10-16T16:37:52;19.00;77.30
39777;DHT22;25453;48.162;14.510;2022-10-16T16:40:19;19.00;77.40
39777;DHT22;25453;48.162;14.510;2022-10-16T16:42:53;18.90;77.40
39777;DHT22;25453;48.162;14.510;2022-10-16T16:45:20;18.90;77.60
39777;DHT22;25453;48.162;14.510;2022-10-16T16:47:48;18.80;77.70
39777;DHT22;25453;48.162;14.510;2022-10-16T16:50:22;18.80;77.90
39777;DHT22;25453;48.162;14.510;2022-10-16T16:52:49;18.80;78.00
39777;DHT22;25453;48.162;14.510;2022-10-16T16:55:16;18.80;78.00
39777;DHT22;25453;48.162;14.510;2022-10-16T16:57:50;18.70;78.30
39777;DHT22;25453;48.162;14.510;2022-10-16T17:00:24;18.70;78.40
39777;DHT22;25453;48.162;14.510;2022-10-16T17:02:52;18.70;78.50
39777;DHT22;25453;48.162;14.510;2022-10-16T17:05:25;18.60;78.60
39777;DHT22;25453;48.162;14.510;2022-10-16T17:07:54;18.60;78.70
39777;DHT22;25453;48.162;14.510;2022-10-16T17:10:28;18.60;79.10
39777;DHT22;25453;48.162;14.510;2022-10-16T17:12:55;18.60;79.10
39777;DHT22;25453;48.162;14.510;2022-10-16T17:15:29;18.50;79.20
39777;DHT22;25453;48.162;14.510;2022-10-16T17:18:03;18.50;79.30
39777;DHT22;25453;48.162;14.510;2022-10-16T17:20:37;18.40;79.40
39777;DHT22;25453;48.162;14.510;2022-10-16T17:23:04;18.40;79.50
39777;DHT22;25453;48.162;14.510;2022-10-16T17:25:39;18.40;79.70
39777;DHT22;25453;48.162;14.510;2022-10-16T17:28:13;18.40;79.70
39777;DHT22;25453;48.162;14.510;2022-10-16T17:30:41;18.30;79.80
39777;DHT22;25453;48.162;14.510;2022-10-16T17:33:21;18.30;79.90
39777;DHT22;25453;48.162;14.510;2022-10-16T17:35:49;18.30;79.90
39777;DHT22;25453;48.162;14.510;2022-10-16T17:38:23;18.20;80.00
39777;DHT22;25453;48.162;14.510;2022-10-16T17:40:50;18.20;80.00
39777;DHT22;25453;48.162;14.510;2022-10-16T17:43:25;18.20;80.00
39777;DHT22;25453;48.162;14.510;2022-10-16T17:45:53;18.20;80.00
39777;DHT22;25453;48.162;14.510;2022-10-16T17:48:27;18.10;80.00
39777;DHT22;25453;48.162;14.510;2022-10-16T17:50:54;18.10;80.00
39777;DHT22;25453;48.162;14.510;2022-10-16T17:53:29;18.10;80.00
39777;DHT22;25453;48.162;14.510;2022-10-16T17:56:04;18.00;80.00